Time;durP1;ratioP1;P1;durP2;ratioP2;P2;SDS_P1;SDS_P2;PMS_P1;PMS_P2;Temp;Humidity;BMP_temperature;BMP_pressure;BME280_temperature;BME280_humidity;BME280_pressure;Samples;Min_cycle;Max_cycle;Signal;HPM_P1;HPM_P2
2022/08/12 00:43:54;;;;;;;;;;;;;;;22.71;61.75;99652.28;3143386;28;19920;-66
2022/08/12 00:45:26;;;;;;;;;;;;;;;22.74;61.64;99651.97;3143788;28;19929;-66
2022/08/12 00:47:18;;;;;;;;;;;;;;;22.75;61.86;99658.16;3139497;28;19931;-66
2022/08/12 00:48:49;;;;;;;;;;;;;;;22.74;62.20;99662.59;3144688;28;19932;-66
2022/08/12 00:50:22;;;;;;;;;;;;;;;22.73;61.67;99655.63;3144991;28;19928;-66
2022/08/12 00:52:05;;;;;;;;;;;;;;;22.75;61.58;99661.63;3145696;28;20360;-66
2022/08/12 00:53:38;;;;;;;;;;;;;;;22.77;61.62;99662.31;3143438;28;19943;-67
2022/08/12 00:55:09;;;;;;;;;;;;;;;22.78;61.96;99658.69;3135725;28;19935;-67
2022/08/12 00:56:41;;;;;;;;;;;;;;;22.79;61.65;99655.03;3146069;28;20256;-66
2022/08/12 00:58:16;;;;;;;;;;;;;;;22.82;61.60;99653.91;3135478;28;19920;-65
2022/08/12 00:59:49;;;;;;;;;;;;;;;22.83;61.55;99664.34;3129465;28;19921;-66
2022/08/12 01:01:21;;;;;;;;;;;;;;;22.83;61.63;99653.72;3140672;28;19924;-67
2022/08/12 01:02:56;;;;;;;;;;;;;;;22.81;62.69;99657.53;3141962;28;19932;-66
2022/08/12 01:12:04;;;;;;;;;;;;;;;22.42;65.84;99661.28;3088870;28;19926;-67
2022/08/12 01:13:41;;;;;;;;;;;;;;;22.37;66.30;99668.84;3102488;28;19970;-66
2022/08/12 01:15:12;;;;;;;;;;;;;;;22.28;66.94;99658.31;3137859;28;19920;-66
2022/08/12 01:16:46;;;;;;;;;;;;;;;22.16;67.72;99663.78;3141652;28;19924;-67
2022/08/12 01:18:19;;;;;;;;;;;;;;;22.12;67.34;99661.53;3144900;28;20003;-65
2022/08/12 01:19:52;;;;;;;;;;;;;;;22.13;67.40;99663.22;3144046;28;19935;-64
2022/08/12 01:21:36;;;;;;;;;;;;;;;22.14;67.49;99660.41;3142279;28;19920;-65
2022/08/12 01:23:20;;;;;;;;;;;;;;;22.14;67.45;99660.41;3139903;28;20292;-65
2022/08/12 01:25:05;;;;;;;;;;;;;;;22.13;67.67;99663.22;3147895;28;20287;-65
2022/08/12 01:26:38;;;;;;;;;;;;;;;22.00;68.09;99661.72;3148602;28;19931;-65
2022/08/12 01:28:12;;;;;;;;;;;;;;;21.97;68.51;99669.16;3149023;28;20386;-66
2022/08/12 01:29:44;;;;;;;;;;;;;;;21.96;67.96;99662.19;3145425;28;20012;-65
2022/08/12 01:31:16;;;;;;;;;;;;;;;21.99;67.76;99668.03;3137783;28;19920;-65
2022/08/12 01:32:48;;;;;;;;;;;;;;;22.00;67.57;99669.69;3141524;28;19921;-65
2022/08/12 01:34:31;;;;;;;;;;;;;;;22.03;67.36;99666.72;3144241;28;19925;-65
2022/08/12 01:36:05;;;;;;;;;;;;;;;22.05;67.50;99658.66;3145072;28;19920;-64
2022/08/12 01:37:42;;;;;;;;;;;;;;;22.03;67.66;99653.47;3137949;28;19971;-65
2022/08/12 01:39:14;;;;;;;;;;;;;;;22.05;67.25;99656.00;3144079;28;20352;-65
2022/08/12 01:40:48;;;;;;;;;;;;;;;22.08;66.97;99654.88;3145523;28;19920;-65
2022/08/12 01:42:19;;;;;;;;;;;;;;;22.11;67.12;99647.47;3146051;28;19924;-65
2022/08/12 01:43:52;;;;;;;;;;;;;;;22.08;67.96;99649.56;3146799;28;19924;-67
2022/08/12 01:45:25;;;;;;;;;;;;;;;22.04;67.80;99649.88;3147377;28;19931;-65
2022/08/12 01:47:02;;;;;;;;;;;;;;;22.06;68.14;99638.28;3140204;28;19989;-65
2022/08/12 01:48:50;;;;;;;;;;;;;;;21.98;68.78;99645.16;3148336;28;19928;-65
2022/08/12 01:50:25;;;;;;;;;;;;;;;21.97;68.60;99640.81;3148555;28;19931;-66
2022/08/12 01:52:03;;;;;;;;;;;;;;;21.93;69.12;99646.56;3145017;28;20241;-65
2022/08/12 01:53:43;;;;;;;;;;;;;;;21.91;68.51;99646.69;3144362;28;19925;-66
2022/08/12 01:55:19;;;;;;;;;;;;;;;21.92;68.57;99648.38;3144477;28;19956;-66
2022/08/12 01:56:55;;;;;;;;;;;;;;;21.93;68.32;99639.44;3145062;28;20276;-66
2022/08/12 01:59:44;;;;;;;;;;;;;;;21.91;68.73;99644.03;3145651;28;19920;-66
2022/08/12 02:00:20;;;;;;;;;;;;;;;21.91;69.12;99643.22;3145711;28;19963;-66
2022/08/12 02:01:53;;;;;;;;;;;;;;;21.90;68.57;99641.56;3146453;28;20005;-65
2022/08/12 02:12:53;;;;;;;;;;;;;;;21.73;70.31;99632.53;3110890;28;19921;-65
2022/08/12 02:14:36;;;;;;;;;;;;;;;21.67;69.88;99628.66;3105563;28;19929;-65
2022/08/12 02:16:12;;;;;;;;;;;;;;;21.66;70.11;99621.69;3106130;28;19921;-66
2022/08/12 02:17:55;;;;;;;;;;;;;;;21.64;70.11;99621.00;3134213;28;20034;-65
2022/08/12 02:19:42;;;;;;;;;;;;;;;21.62;70.00;99630.06;3147905;28;19920;-65
2022/08/12 02:21:20;;;;;;;;;;;;;;;21.54;70.55;99628.16;3142841;28;19920;-65
2022/08/12 02:22:52;;;;;;;;;;;;;;;21.49;70.75;99623.25;3135320;28;19986;-65
2022/08/12 02:24:22;;;;;;;;;;;;;;;21.45;71.06;99629.84;3147772;28;19927;-65
2022/08/12 02:25:56;;;;;;;;;;;;;;;21.43;70.79;99623.84;3142079;28;20372;-66
2022/08/12 02:27:27;;;;;;;;;;;;;;;21.40;71.21;99620.66;3143194;28;19997;-66
2022/08/12 02:29:01;;;;;;;;;;;;;;;21.39;71.19;99621.63;3136404;28;19927;-65
2022/08/12 02:30:33;;;;;;;;;;;;;;;21.32;71.25;99630.09;3141143;28;19957;-66
2022/08/12 02:32:05;;;;;;;;;;;;;;;21.28;71.14;99633.19;3144181;28;19924;-66
2022/08/12 02:33:38;;;;;;;;;;;;;;;21.27;71.48;99635.00;3145227;28;19927;-66
2022/08/12 02:35:19;;;;;;;;;;;;;;;21.27;71.03;99636.81;3145155;28;19990;-65
2022/08/12 02:36:54;;;;;;;;;;;;;;;21.30;70.53;99636.53;3143899;28;20408;-65
2022/08/12 02:38:27;;;;;;;;;;;;;;;21.32;70.18;99638.03;3138844;28;20295;-65
2022/08/12 02:40:02;;;;;;;;;;;;;;;21.36;70.37;99633.34;3146585;28;20454;-65
2022/08/12 02:41:34;;;;;;;;;;;;;;;21.39;70.12;99634.88;3138740;28;19967;-65
2022/08/12 02:43:17;;;;;;;;;;;;;;;21.42;69.62;99640.72;3144142;28;20007;-65
2022/08/12 02:44:53;;;;;;;;;;;;;;;21.45;69.53;99648.38;3148258;28;19928;-65
2022/08/12 02:46:28;;;;;;;;;;;;;;;21.47;69.50;99638.47;3140593;28;20391;-65
2022/08/12 02:48:01;;;;;;;;;;;;;;;21.49;69.84;99633.88;3143148;28;19924;-65
2022/08/12 02:49:35;;;;;;;;;;;;;;;21.46;69.99;99647.41;3143047;28;19920;-65
2022/08/12 02:51:09;;;;;;;;;;;;;;;21.46;69.62;99639.44;3143038;28;19920;-65
2022/08/12 02:52:42;;;;;;;;;;;;;;;21.48;69.51;99641.97;3143168;28;20387;-65
2022/08/12 02:54:14;;;;;;;;;;;;;;;21.46;69.54;99647.41;3143801;28;19962;-67
2022/08/12 02:55:45;;;;;;;;;;;;;;;21.47;69.73;99651.72;3144825;28;19963;-66
2022/08/12 02:57:18;;;;;;;;;;;;;;;21.44;69.56;99646.69;3145111;28;19921;-66
2022/08/12 02:58:50;;;;;;;;;;;;;;;21.42;69.72;99655.78;3145368;28;19931;-66
2022/08/12 03:00:23;;;;;;;;;;;;;;;21.32;69.62;99648.63;3138817;28;19955;-66
2022/08/12 03:01:57;;;;;;;;;;;;;;;21.20;69.51;99651.59;3146616;28;19928;-66
2022/08/12 03:03:30;;;;;;;;;;;;;;;21.06;69.55;99653.69;3130356;28;19924;-67
2022/08/12 03:05:03;;;;;;;;;;;;;;;20.97;69.75;99648.38;3148084;28;19989;-67
2022/08/12 03:06:41;;;;;;;;;;;;;;;20.91;69.81;99655.06;3147377;28;19932;-66
2022/08/12 03:08:15;;;;;;;;;;;;;;;20.86;69.79;99654.69;3137748;28;19924;-66
2022/08/12 03:09:49;;;;;;;;;;;;;;;20.79;69.79;99657.00;3140513;28;19920;-66
2022/08/12 03:11:24;;;;;;;;;;;;;;;20.78;69.34;99660.66;3146117;28;20103;-66
2022/08/12 03:12:57;;;;;;;;;;;;;;;20.73;69.47;99657.56;3143840;28;20058;-66
2022/08/12 03:14:31;;;;;;;;;;;;;;;20.71;69.29;99661.34;3138265;28;20439;-66
2022/08/12 03:16:06;;;;;;;;;;;;;;;20.68;69.27;99665.09;3147529;28;19920;-67
2022/08/12 03:17:42;;;;;;;;;;;;;;;20.66;69.33;99661.75;3148513;28;19920;-66
2022/08/12 03:19:14;;;;;;;;;;;;;;;20.63;69.49;99667.31;3147889;28;19944;-66
2022/08/12 03:20:45;;;;;;;;;;;;;;;20.60;69.20;99668.44;3139591;28;19921;-65
2022/08/12 03:22:18;;;;;;;;;;;;;;;20.58;69.45;99661.59;3136774;28;19920;-65
2022/08/12 03:23:52;;;;;;;;;;;;;;;20.52;69.39;99660.31;3140979;28;20285;-65
2022/08/12 03:25:26;;;;;;;;;;;;;;;20.47;69.71;99667.81;3143248;28;19921;-65
2022/08/12 03:27:01;;;;;;;;;;;;;;;20.43;69.80;99663.75;3143847;28;19920;-66
2022/08/12 03:28:52;;;;;;;;;;;;;;;20.40;70.06;99661.38;3144353;28;19931;-66
2022/08/12 03:30:24;;;;;;;;;;;;;;;20.43;70.21;99661.13;3143343;28;20409;-66
2022/08/12 03:31:59;;;;;;;;;;;;;;;20.45;69.50;99664.47;3144931;28;19999;-67
2022/08/12 03:33:34;;;;;;;;;;;;;;;20.49;69.40;99655.28;3146084;28;19920;-66
2022/08/12 03:35:11;;;;;;;;;;;;;;;20.50;69.86;99659.63;3145958;28;19920;-67
2022/08/12 03:36:43;;;;;;;;;;;;;;;20.52;70.13;99664.75;3145903;28;20077;-67
2022/08/12 03:38:17;;;;;;;;;;;;;;;20.52;70.15;99667.41;3138174;28;19929;-67
2022/08/12 03:39:47;;;;;;;;;;;;;;;20.49;70.63;99671.16;3147696;28;19985;-67
2022/08/12 03:41:34;;;;;;;;;;;;;;;20.46;70.83;99669.59;3139199;28;19984;-67
2022/08/12 04:01:40;;;;;;;;;;;;;;;20.48;70.89;99663.38;3130003;28;20007;-66
2022/08/12 04:05:00;;;;;;;;;;;;;;;20.46;70.82;99660.84;3129164;28;19947;-66
2022/08/12 04:06:30;;;;;;;;;;;;;;;20.46;71.01;99666.97;3141006;28;19924;-66
2022/08/12 04:08:02;;;;;;;;;;;;;;;20.46;71.03;99666.13;3137478;28;19931;-66
2022/08/12 04:09:35;;;;;;;;;;;;;;;20.47;70.97;99662.53;3139644;28;19920;-67
2022/08/12 04:14:41;;;;;;;;;;;;;;;20.53;71.21;99669.09;3133005;28;19924;-66
2022/08/12 04:16:14;;;;;;;;;;;;;;;20.53;71.65;99674.38;3142964;28;19924;-68
2022/08/12 04:17:46;;;;;;;;;;;;;;;20.54;71.82;99668.97;3143276;28;20305;-67
2022/08/12 04:19:23;;;;;;;;;;;;;;;20.55;71.81;99675.09;3135699;28;19943;-67
2022/08/12 04:20:55;;;;;;;;;;;;;;;20.55;72.32;99670.63;3140420;28;19924;-67
2022/08/12 04:22:29;;;;;;;;;;;;;;;20.58;72.23;99669.53;3135066;28;19921;-66
2022/08/12 04:24:00;;;;;;;;;;;;;;;20.61;72.04;99672.72;3135535;28;19986;-67
2022/08/12 04:25:32;;;;;;;;;;;;;;;20.64;71.87;99672.47;3142436;28;19994;-67
2022/08/12 04:27:06;;;;;;;;;;;;;;;20.68;71.69;99678.34;3142228;28;20550;-67
2022/08/12 04:28:37;;;;;;;;;;;;;;;20.75;71.42;99673.31;3142645;28;20356;-67
2022/08/12 04:30:10;;;;;;;;;;;;;;;20.77;71.82;99677.50;3138278;28;19929;-67
2022/08/12 04:31:41;;;;;;;;;;;;;;;20.82;71.43;99677.06;3138330;28;20275;-67
2022/08/12 04:33:13;;;;;;;;;;;;;;;20.84;71.76;99675.16;3143973;28;20268;-67
2022/08/12 04:34:46;;;;;;;;;;;;;;;20.88;71.41;99676.53;3144670;28;19982;-66
2022/08/12 04:36:18;;;;;;;;;;;;;;;20.92;71.33;99679.75;3142536;28;19921;-66
2022/08/12 04:37:53;;;;;;;;;;;;;;;20.96;71.22;99679.31;3130549;28;19924;-68
2022/08/12 04:39:25;;;;;;;;;;;;;;;20.97;71.50;99683.66;3146271;28;20431;-65
2022/08/12 04:40:57;;;;;;;;;;;;;;;20.98;71.36;99685.31;3127620;28;20318;-66
2022/08/12 04:42:29;;;;;;;;;;;;;;;20.97;71.66;99680.16;3137584;28;19920;-66
2022/08/12 04:44:01;;;;;;;;;;;;;;;20.97;71.56;99685.44;3134427;28;19935;-66
2022/08/12 04:45:33;;;;;;;;;;;;;;;20.96;71.66;99678.50;3137223;28;19924;-66
2022/08/12 04:47:05;;;;;;;;;;;;;;;20.99;71.27;99681.69;3137566;28;19936;-66
2022/08/12 04:48:37;;;;;;;;;;;;;;;21.03;71.08;99684.91;3143647;28;19920;-67
2022/08/12 04:50:11;;;;;;;;;;;;;;;21.09;71.11;99687.84;3142787;28;20292;-68
2022/08/12 04:51:43;;;;;;;;;;;;;;;21.16;70.49;99689.94;3144555;28;19940;-66
2022/08/12 04:53:16;;;;;;;;;;;;;;;21.23;70.68;99691.88;3133158;28;20031;-65
2022/08/12 04:54:47;;;;;;;;;;;;;;;21.27;70.54;99693.28;3146155;28;19920;-66
2022/08/12 04:56:19;;;;;;;;;;;;;;;21.30;70.50;99692.16;3141199;28;19921;-66
2022/08/12 04:57:50;;;;;;;;;;;;;;;21.33;70.47;99681.28;3138114;28;19957;-66
2022/08/12 04:59:21;;;;;;;;;;;;;;;21.34;70.87;99685.59;3137264;28;20282;-66
2022/08/12 05:00:53;;;;;;;;;;;;;;;21.31;71.07;99683.22;3134518;28;19931;-66
2022/08/12 05:02:26;;;;;;;;;;;;;;;21.32;70.96;99682.25;3134791;28;20350;-66
2022/08/12 05:03:57;;;;;;;;;;;;;;;21.34;70.93;99678.47;3133433;28;20071;-66
2022/08/12 05:05:31;;;;;;;;;;;;;;;21.39;70.31;99685.22;3135301;28;20331;-66
2022/08/12 05:07:03;;;;;;;;;;;;;;;21.44;70.19;99686.44;3134730;28;20360;-66
2022/08/12 05:08:35;;;;;;;;;;;;;;;21.49;69.99;99676.25;3135721;28;19924;-66
2022/08/12 05:10:07;;;;;;;;;;;;;;;21.55;69.56;99686.28;3134811;28;19978;-66
2022/08/12 05:11:38;;;;;;;;;;;;;;;21.60;69.46;99693.81;3135059;28;19935;-66
2022/08/12 05:13:11;;;;;;;;;;;;;;;21.62;68.99;99693.66;3134721;28;19924;-65
2022/08/12 05:14:42;;;;;;;;;;;;;;;21.63;68.76;99695.34;3134943;28;19963;-66
2022/08/12 05:16:14;;;;;;;;;;;;;;;21.68;68.67;99696.59;3135168;28;19925;-66
2022/08/12 05:17:45;;;;;;;;;;;;;;;21.73;68.44;99699.63;3136144;28;19936;-66
2022/08/12 05:19:17;;;;;;;;;;;;;;;21.76;68.25;99706.47;3140362;28;19920;-66
2022/08/12 05:20:50;;;;;;;;;;;;;;;21.77;68.04;99706.34;3138068;28;20356;-67
2022/08/12 05:22:22;;;;;;;;;;;;;;;21.81;67.85;99709.53;3134493;28;19925;-67
2022/08/12 05:23:54;;;;;;;;;;;;;;;21.85;67.83;99710.91;3135136;28;19936;-65
2022/08/12 05:25:25;;;;;;;;;;;;;;;21.86;67.54;99712.59;3134903;28;19921;-65
2022/08/12 05:26:57;;;;;;;;;;;;;;;21.89;67.73;99714.97;3134875;28;19932;-65
2022/08/12 05:28:30;;;;;;;;;;;;;;;21.96;67.37;99709.91;3137131;28;19947;-65
2022/08/12 05:30:01;;;;;;;;;;;;;;;21.96;67.58;99709.91;3134940;28;19924;-66
2022/08/12 05:31:33;;;;;;;;;;;;;;;22.01;67.31;99713.81;3135253;28;19920;-64
2022/08/12 05:33:05;;;;;;;;;;;;;;;22.10;67.33;99714.75;3134708;28;19982;-64
2022/08/12 05:34:37;;;;;;;;;;;;;;;22.15;67.18;99712.47;3134967;28;19920;-64
2022/08/12 05:36:12;;;;;;;;;;;;;;;22.18;67.02;99720.19;3135130;28;19920;-66
2022/08/12 05:37:44;;;;;;;;;;;;;;;22.20;66.94;99712.91;3135338;28;19947;-68
2022/08/12 05:39:15;;;;;;;;;;;;;;;22.25;66.89;99713.31;3135725;28;20046;-67
2022/08/12 05:40:48;;;;;;;;;;;;;;;22.24;67.13;99703.69;3134884;28;20053;-69
2022/08/12 05:42:23;;;;;;;;;;;;;;;22.26;67.18;99712.31;3135122;28;19928;-67
2022/08/12 05:43:56;;;;;;;;;;;;;;;22.37;66.87;99707.81;3141839;28;19925;-68
2022/08/12 05:45:28;;;;;;;;;;;;;;;22.41;66.70;99707.38;3133740;28;19921;-68
2022/08/12 05:47:00;;;;;;;;;;;;;;;22.49;66.36;99706.63;3144687;28;19930;-67
2022/08/12 05:48:31;;;;;;;;;;;;;;;22.55;65.67;99711.34;3146395;28;20007;-65
2022/08/12 05:50:03;;;;;;;;;;;;;;;22.62;65.62;99707.09;3138980;28;19987;-66
2022/08/12 05:51:37;;;;;;;;;;;;;;;22.69;65.33;99708.19;3134772;28;19935;-67
2022/08/12 05:53:09;;;;;;;;;;;;;;;22.79;65.29;99709.94;3133737;28;19938;-67
2022/08/12 05:54:43;;;;;;;;;;;;;;;22.88;64.78;99701.91;3133126;28;19921;-67
2022/08/12 05:56:18;;;;;;;;;;;;;;;22.98;64.24;99707.19;3137349;28;19943;-66
2022/08/12 05:57:54;;;;;;;;;;;;;;;23.04;64.12;99703.09;3137365;28;20019;-67
2022/08/12 05:59:25;;;;;;;;;;;;;;;23.08;63.70;99701.81;3137187;28;19921;-64
2022/08/12 06:00:56;;;;;;;;;;;;;;;23.14;63.67;99703.84;3134821;28;20327;-64
2022/08/12 06:02:28;;;;;;;;;;;;;;;23.20;63.62;99697.94;3136883;28;20011;-64
2022/08/12 06:03:59;;;;;;;;;;;;;;;23.25;63.30;99700.97;3136805;28;20311;-65
2022/08/12 06:05:33;;;;;;;;;;;;;;;23.32;63.17;99699.34;3144251;28;19920;-65
2022/08/12 06:07:11;;;;;;;;;;;;;;;23.40;62.95;99701.25;3144403;28;19939;-66
2022/08/12 06:08:46;;;;;;;;;;;;;;;23.52;62.82;99699.19;3137329;28;20354;-69
2022/08/12 06:10:18;;;;;;;;;;;;;;;23.60;62.54;99696.56;3137199;28;19921;-70
2022/08/12 06:11:50;;;;;;;;;;;;;;;23.70;62.15;99697.34;3136726;28;19929;-66
2022/08/12 06:13:21;;;;;;;;;;;;;;;23.80;61.95;99703.38;3136903;28;20011;-65
2022/08/12 06:14:53;;;;;;;;;;;;;;;23.87;61.72;99694.78;3136776;28;19955;-65
2022/08/12 06:16:25;;;;;;;;;;;;;;;23.90;60.69;99694.47;3136670;28;20284;-66
2022/08/12 06:18:04;;;;;;;;;;;;;;;23.88;60.36;99694.63;3136737;28;19937;-65
2022/08/12 06:19:36;;;;;;;;;;;;;;;23.88;60.59;99701.78;3135203;28;19921;-66
2022/08/12 06:21:07;;;;;;;;;;;;;;;23.92;60.66;99695.13;3137251;28;19920;-67
2022/08/12 06:22:41;;;;;;;;;;;;;;;24.02;60.45;99701.19;3138315;28;19920;-67
2022/08/12 06:24:13;;;;;;;;;;;;;;;24.07;60.46;99699.69;3135201;28;20467;-66
2022/08/12 06:25:45;;;;;;;;;;;;;;;24.13;59.96;99703.56;3130609;28;19940;-65
2022/08/12 06:27:17;;;;;;;;;;;;;;;24.15;58.91;99695.44;3132386;28;19983;-68
2022/08/12 06:28:49;;;;;;;;;;;;;;;24.18;58.98;99692.44;3137759;28;19921;-66
2022/08/12 06:30:21;;;;;;;;;;;;;;;24.22;58.21;99691.97;3136117;28;19932;-65
2022/08/12 06:31:53;;;;;;;;;;;;;;;24.31;58.50;99695.50;3136722;28;20387;-65
2022/08/12 06:33:24;;;;;;;;;;;;;;;24.38;58.06;99693.03;3136369;28;20512;-66
2022/08/12 06:34:56;;;;;;;;;;;;;;;24.45;58.14;99702.06;3141779;28;19932;-66
2022/08/12 06:36:28;;;;;;;;;;;;;;;24.53;57.38;99702.09;3133967;28;19990;-66
2022/08/12 06:38:02;;;;;;;;;;;;;;;24.57;57.08;99695.44;3136767;28;19937;-65
2022/08/12 06:39:34;;;;;;;;;;;;;;;24.64;57.25;99695.63;3141096;28;20007;-65
2022/08/12 06:42:55;;;;;;;;;;;;;;;24.84;56.75;99696.19;3141522;28;19928;-65
2022/08/12 06:44:26;;;;;;;;;;;;;;;24.92;56.26;99693.53;3143191;28;19925;-66
2022/08/12 06:45:58;;;;;;;;;;;;;;;25.00;56.12;99696.22;3138841;28;19924;-66
2022/08/12 06:47:31;;;;;;;;;;;;;;;25.09;55.84;99686.41;3146363;28;20292;-66
2022/08/12 06:49:03;;;;;;;;;;;;;;;25.14;55.27;99697.41;3138336;28;19963;-66
2022/08/12 06:50:34;;;;;;;;;;;;;;;25.17;54.42;99697.94;3143264;28;19939;-65
2022/08/12 06:52:06;;;;;;;;;;;;;;;25.17;53.98;99697.06;3132683;28;19920;-64
2022/08/12 06:53:42;;;;;;;;;;;;;;;25.14;53.56;99695.59;3148599;28;19920;-66
2022/08/12 06:55:14;;;;;;;;;;;;;;;25.13;53.50;99695.72;3141917;28;20403;-66
2022/08/12 06:56:46;;;;;;;;;;;;;;;25.18;53.54;99690.75;3137505;28;20380;-64
2022/08/12 06:58:19;;;;;;;;;;;;;;;25.27;53.39;99688.94;3135462;28;19931;-63
2022/08/12 06:59:50;;;;;;;;;;;;;;;25.38;53.92;99686.78;3132056;28;19924;-64
2022/08/12 07:01:22;;;;;;;;;;;;;;;25.49;54.24;99682.91;3137954;28;19920;-64
2022/08/12 07:02:54;;;;;;;;;;;;;;;25.62;53.59;99677.91;3129951;28;20020;-64
2022/08/12 07:04:26;;;;;;;;;;;;;;;25.81;53.51;99682.03;3136963;28;19927;-65
2022/08/12 07:05:58;;;;;;;;;;;;;;;25.99;52.63;99670.34;3125687;28;19925;-65
2022/08/12 07:07:30;;;;;;;;;;;;;;;26.17;52.55;99675.44;3131987;28;20383;-65
2022/08/12 07:09:03;;;;;;;;;;;;;;;26.31;52.80;99670.19;3129960;28;19928;-66
2022/08/12 07:10:38;;;;;;;;;;;;;;;26.43;51.74;99675.16;3131035;28;20293;-65
2022/08/12 07:12:18;;;;;;;;;;;;;;;26.49;51.06;99671.78;3124654;28;20039;-64
2022/08/12 07:13:52;;;;;;;;;;;;;;;26.53;50.71;99665.09;3132879;28;19989;-65
2022/08/12 07:15:24;;;;;;;;;;;;;;;26.59;50.60;99666.25;3136625;28;19921;-65
2022/08/12 07:17:00;;;;;;;;;;;;;;;26.66;51.35;99673.41;3132045;28;19933;-66
2022/08/12 07:18:32;;;;;;;;;;;;;;;26.74;50.91;99670.69;3134207;28;20368;-65
2022/08/12 07:20:07;;;;;;;;;;;;;;;26.83;50.03;99665.25;3132163;28;19921;-65
2022/08/12 07:21:38;;;;;;;;;;;;;;;26.93;49.78;99664.03;3130632;28;19924;-66
2022/08/12 07:23:10;;;;;;;;;;;;;;;27.06;49.94;99667.94;3140318;28;19924;-64
2022/08/12 07:25:29;;;;;;;;;;;;;;;27.16;49.98;99668.56;3134654;28;19920;-66
2022/08/12 07:26:40;;;;;;;;;;;;;;;27.29;48.58;99660.75;3129654;28;19924;-65
2022/08/12 07:28:13;;;;;;;;;;;;;;;27.41;48.59;99671.84;3130229;28;19931;-66
2022/08/12 07:29:46;;;;;;;;;;;;;;;27.50;47.77;99662.72;3129480;28;20392;-64
2022/08/12 07:31:18;;;;;;;;;;;;;;;27.52;47.57;99662.56;3147649;28;19924;-63
2022/08/12 07:32:50;;;;;;;;;;;;;;;27.58;47.49;99662.66;3141083;28;19924;-65
2022/08/12 07:34:22;;;;;;;;;;;;;;;27.61;47.00;99656.94;3145769;28;19920;-64
2022/08/12 07:35:54;;;;;;;;;;;;;;;27.65;47.50;99652.03;3141646;28;19932;-65
2022/08/12 07:37:26;;;;;;;;;;;;;;;27.61;47.29;99648.91;3137185;28;19935;-65
2022/08/12 07:38:57;;;;;;;;;;;;;;;27.61;47.65;99646.25;3135600;28;19920;-64
2022/08/12 07:40:30;;;;;;;;;;;;;;;27.65;47.08;99657.41;3135854;28;19921;-65
2022/08/12 07:42:03;;;;;;;;;;;;;;;27.69;46.52;99653.38;3135984;28;19924;-65
2022/08/12 07:43:35;;;;;;;;;;;;;;;27.74;46.01;99650.94;3144599;28;19928;-65
2022/08/12 07:45:08;;;;;;;;;;;;;;;27.78;45.69;99652.28;3138876;28;19930;-65
2022/08/12 07:46:41;;;;;;;;;;;;;;;27.86;45.78;99643.31;3135901;28;19993;-67
2022/08/12 07:48:13;;;;;;;;;;;;;;;27.90;45.48;99644.63;3135579;28;19921;-67
2022/08/12 07:49:44;;;;;;;;;;;;;;;27.95;45.23;99652.09;3143367;28;19934;-68
2022/08/12 07:51:17;;;;;;;;;;;;;;;28.00;45.55;99649.69;3146065;28;19920;-66
2022/08/12 07:52:48;;;;;;;;;;;;;;;28.03;45.09;99650.13;3146614;28;19960;-66
2022/08/12 07:54:20;;;;;;;;;;;;;;;28.03;44.43;99649.31;3147072;28;19932;-66
2022/08/12 07:55:53;;;;;;;;;;;;;;;28.06;44.71;99655.13;3142469;28;19924;-66
2022/08/12 07:57:24;;;;;;;;;;;;;;;28.16;43.69;99644.16;3142746;28;19936;-66
2022/08/12 07:58:57;;;;;;;;;;;;;;;28.31;43.41;99652.16;3143046;28;20292;-64
2022/08/12 08:00:30;;;;;;;;;;;;;;;28.46;43.13;99644.94;3143485;28;20364;-66
2022/08/12 08:02:02;;;;;;;;;;;;;;;28.57;42.80;99641.78;3143968;28;19924;-66
2022/08/12 08:03:34;;;;;;;;;;;;;;;28.74;42.23;99644.19;3136833;28;19921;-66
2022/08/12 08:05:05;;;;;;;;;;;;;;;28.87;42.61;99636.28;3143522;28;19928;-65
2022/08/12 08:06:39;;;;;;;;;;;;;;;29.05;41.79;99635.88;3132683;28;20311;-65
2022/08/12 08:08:14;;;;;;;;;;;;;;;29.19;41.71;99651.03;3138777;28;19921;-65
2022/08/12 08:09:46;;;;;;;;;;;;;;;29.31;41.56;99645.97;3137774;28;19942;-65
2022/08/12 08:13:11;;;;;;;;;;;;;;;29.58;40.75;99638.94;3146955;28;19920;-66
2022/08/12 08:14:43;;;;;;;;;;;;;;;29.69;39.76;99626.84;3147133;28;20670;-65
2022/08/12 08:16:15;;;;;;;;;;;;;;;29.76;39.27;99627.75;3143472;28;19928;-64
2022/08/12 08:17:55;;;;;;;;;;;;;;;29.79;38.52;99623.84;3135436;28;19921;-66
2022/08/12 08:19:28;;;;;;;;;;;;;;;29.85;38.38;99623.84;3132842;28;19999;-65
2022/08/12 08:20:59;;;;;;;;;;;;;;;29.83;37.96;99617.84;3138717;28;19949;-66
2022/08/12 08:22:30;;;;;;;;;;;;;;;29.87;38.02;99620.97;3143856;28;20317;-64
2022/08/12 08:24:14;;;;;;;;;;;;;;;29.79;37.61;99621.97;3143473;28;19924;-65
2022/08/12 08:25:46;;;;;;;;;;;;;;;29.85;38.03;99617.66;3143567;28;19924;-65
2022/08/12 08:27:20;;;;;;;;;;;;;;;29.94;37.73;99621.84;3144548;28;19921;-66
2022/08/12 08:28:52;;;;;;;;;;;;;;;29.98;37.09;99619.56;3144880;28;20016;-65
2022/08/12 08:30:23;;;;;;;;;;;;;;;30.03;36.89;99626.00;3145803;28;19927;-66
2022/08/12 08:31:58;;;;;;;;;;;;;;;30.15;37.48;99612.84;3145703;28;19924;-66
2022/08/12 08:33:31;;;;;;;;;;;;;;;30.25;36.88;99616.00;3144121;28;20003;-64
2022/08/12 08:35:04;;;;;;;;;;;;;;;30.29;36.66;99619.09;3139387;28;19921;-65
2022/08/12 08:36:37;;;;;;;;;;;;;;;30.32;36.10;99621.41;3147113;28;20283;-65
2022/08/12 08:38:10;;;;;;;;;;;;;;;30.28;35.83;99610.22;3135195;28;19932;-65
2022/08/12 08:39:41;;;;;;;;;;;;;;;30.34;35.17;99613.94;3142665;28;20011;-65
2022/08/12 08:43:03;;;;;;;;;;;;;;;30.42;35.04;99613.78;3143697;28;19920;-66
2022/08/12 08:44:38;;;;;;;;;;;;;;;30.54;34.71;99614.00;3142180;28;20375;-66
2022/08/12 08:46:10;;;;;;;;;;;;;;;30.63;34.97;99609.28;3136208;28;19999;-66
2022/08/12 08:47:43;;;;;;;;;;;;;;;30.71;35.06;99609.09;3141946;28;19920;-67
2022/08/12 08:49:15;;;;;;;;;;;;;;;30.72;34.50;99608.88;3138487;28;20404;-64
2022/08/12 08:50:46;;;;;;;;;;;;;;;30.71;34.61;99601.84;3140872;28;19931;-64
2022/08/12 08:52:24;;;;;;;;;;;;;;;30.76;33.82;99603.91;3141602;28;19921;-64
2022/08/12 08:53:55;;;;;;;;;;;;;;;30.88;33.97;99602.31;3139208;28;19924;-64
2022/08/12 08:55:27;;;;;;;;;;;;;;;30.98;34.47;99594.66;3146242;28;19924;-64
2022/08/12 08:57:00;;;;;;;;;;;;;;;31.12;34.09;99600.84;3145146;28;19921;-64
2022/08/12 08:58:33;;;;;;;;;;;;;;;31.22;33.40;99593.19;3135925;28;19921;-65
2022/08/12 09:00:05;;;;;;;;;;;;;;;31.20;32.83;99587.16;3146331;28;20304;-65
2022/08/12 09:01:37;;;;;;;;;;;;;;;31.26;33.46;99596.28;3142253;28;20395;-66
2022/08/12 09:03:08;;;;;;;;;;;;;;;31.33;33.51;99580.16;3141355;28;20276;-64
2022/08/12 09:04:39;;;;;;;;;;;;;;;31.40;33.18;99581.81;3136011;28;20365;-65
2022/08/12 09:06:13;;;;;;;;;;;;;;;31.42;32.90;99592.38;3139042;28;19931;-64
2022/08/12 09:07:45;;;;;;;;;;;;;;;31.35;32.70;99586.97;3139108;28;19979;-64
2022/08/12 09:09:17;;;;;;;;;;;;;;;31.29;33.24;99579.72;3135360;28;19937;-64
2022/08/12 09:10:49;;;;;;;;;;;;;;;31.21;33.29;99574.56;3142216;28;20006;-64
2022/08/12 09:14:10;;;;;;;;;;;;;;;31.13;32.78;99569.41;3135236;28;19928;-65
2022/08/12 09:15:42;;;;;;;;;;;;;;;31.14;32.54;99571.88;3142886;28;20408;-65
2022/08/12 09:17:13;;;;;;;;;;;;;;;31.25;32.87;99570.41;3142426;28;19920;-64
2022/08/12 09:18:45;;;;;;;;;;;;;;;31.36;32.54;99569.81;3143328;28;20335;-64
2022/08/12 09:20:16;;;;;;;;;;;;;;;31.48;32.67;99565.44;3140422;28;19920;-65
2022/08/12 09:21:47;;;;;;;;;;;;;;;31.64;32.70;99560.63;3144207;28;19947;-65
2022/08/12 09:23:19;;;;;;;;;;;;;;;31.77;32.88;99565.13;3144771;28;20356;-65
2022/08/12 09:24:51;;;;;;;;;;;;;;;31.94;32.45;99569.03;3145320;28;19924;-65
2022/08/12 09:26:23;;;;;;;;;;;;;;;32.13;32.11;99570.00;3145608;28;19920;-65
2022/08/12 09:27:55;;;;;;;;;;;;;;;32.25;31.79;99570.94;3146224;28;19924;-65
2022/08/12 09:29:28;;;;;;;;;;;;;;;32.29;30.63;99565.94;3146676;28;20304;-65
2022/08/12 09:31:03;;;;;;;;;;;;;;;32.27;30.32;99568.03;3144646;28;20011;-65
2022/08/12 09:32:35;;;;;;;;;;;;;;;32.14;30.60;99574.31;3142243;28;20376;-64
2022/08/12 09:34:07;;;;;;;;;;;;;;;32.02;29.94;99570.66;3137920;28;19932;-65
2022/08/12 09:35:43;;;;;;;;;;;;;;;31.92;30.23;99571.13;3141419;28;19921;-64
2022/08/12 09:37:14;;;;;;;;;;;;;;;31.92;30.39;99579.22;3139165;28;20360;-64
2022/08/12 09:38:46;;;;;;;;;;;;;;;32.00;30.76;99578.13;3140136;28;19929;-63